sensor_id;sensor_type;location;lat;lon;timestamp;pressure;altitude;pressure_sealevel;temperature;humidity
6218;BME280;3142;48.206;11.550;2022-09-09T00:01:37;95520.63;;;19.21;63.61
6218;BME280;3142;48.206;11.550;2022-09-09T00:04:13;95525.66;;;19.22;63.78
6218;BME280;3142;48.206;11.550;2022-09-09T00:06:45;95524.06;;;19.21;63.42
6218;BME280;3142;48.206;11.550;2022-09-09T00:09:17;95527.53;;;19.22;63.73
6218;BME280;3142;48.206;11.550;2022-09-09T00:11:48;95523.00;;;19.22;63.74
6218;BME280;3142;48.206;11.550;2022-09-09T00:14:23;95525.94;;;19.21;63.78
6218;BME280;3142;48.206;11.550;2022-09-09T00:16:57;95519.25;;;19.18;63.91
6218;BME280;3142;48.206;11.550;2022-09-09T00:19:30;95511.56;;;19.17;63.99
6218;BME280;3142;48.206;11.550;2022-09-09T00:22:08;95509.69;;;19.17;64.42
6218;BME280;3142;48.206;11.550;2022-09-09T00:24:43;95516.38;;;19.20;64.83
6218;BME280;3142;48.206;11.550;2022-09-09T00:27:17;95510.81;;;19.21;64.45
6218;BME280;3142;48.206;11.550;2022-09-09T00:29:48;95514.53;;;19.26;64.57
6218;BME280;3142;48.206;11.550;2022-09-09T00:32:20;95516.91;;;19.22;64.85
6218;BME280;3142;48.206;11.550;2022-09-09T00:34:49;95518.25;;;19.24;64.54
6218;BME280;3142;48.206;11.550;2022-09-09T00:37:18;95515.31;;;19.21;64.95
6218;BME280;3142;48.206;11.550;2022-09-09T00:39:46;95516.09;;;19.21;65.15
6218;BME280;3142;48.206;11.550;2022-09-09T00:42:15;95513.19;;;19.23;65.44
6218;BME280;3142;48.206;11.550;2022-09-09T00:44:58;95514.53;;;19.20;65.24
6218;BME280;3142;48.206;11.550;2022-09-09T00:47:46;95518.22;;;19.19;65.20
6218;BME280;3142;48.206;11.550;2022-09-09T00:50:34;95521.91;;;19.18;65.28
6218;BME280;3142;48.206;11.550;2022-09-09T00:53:10;95516.38;;;19.20;65.77
6218;BME280;3142;48.206;11.550;2022-09-09T00:55:48;95500.94;;;19.17;66.07
6218;BME280;3142;48.206;11.550;2022-09-09T00:58:16;95512.09;;;19.14;66.32
6218;BME280;3142;48.206;11.550;2022-09-09T01:00:44;95513.66;;;19.10;66.09
6218;BME280;3142;48.206;11.550;2022-09-09T01:03:32;95519.19;;;19.03;66.78
6218;BME280;3142;48.206;11.550;2022-09-09T01:06:02;95523.16;;;19.01;66.48
6218;BME280;3142;48.206;11.550;2022-09-09T01:08:42;95510.94;;;18.94;66.58
6218;BME280;3142;48.206;11.550;2022-09-09T01:11:20;95515.13;;;18.90;67.18
6218;BME280;3142;48.206;11.550;2022-09-09T01:13:49;95514.34;;;18.90;67.04
6218;BME280;3142;48.206;11.550;2022-09-09T01:16:19;95522.28;;;18.90;67.12
6218;BME280;3142;48.206;11.550;2022-09-09T01:18:50;95523.59;;;18.87;67.23
6218;BME280;3142;48.206;11.550;2022-09-09T01:21:23;95515.38;;;18.89;67.43
6218;BME280;3142;48.206;11.550;2022-09-09T01:24:05;95513.53;;;18.89;66.66
6218;BME280;3142;48.206;11.550;2022-09-09T01:26:37;95514.91;;;18.92;66.62
6218;BME280;3142;48.206;11.550;2022-09-09T01:29:08;95521.53;;;18.94;66.56
6218;BME280;3142;48.206;11.550;2022-09-09T01:31:37;95508.28;;;18.94;66.21
6218;BME280;3142;48.206;11.550;2022-09-09T01:34:10;95516.72;;;18.86;67.18
6218;BME280;3142;48.206;11.550;2022-09-09T01:36:40;95514.56;;;18.83;67.50
6218;BME280;3142;48.206;11.550;2022-09-09T01:39:09;95519.34;;;18.86;67.25
6218;BME280;3142;48.206;11.550;2022-09-09T01:41:38;95517.50;;;18.87;67.16
6218;BME280;3142;48.206;11.550;2022-09-09T01:44:05;95519.59;;;18.80;67.01
6218;BME280;3142;48.206;11.550;2022-09-09T01:46:32;95518.28;;;18.82;67.26
6218;BME280;3142;48.206;11.550;2022-09-09T01:49:00;95514.84;;;18.82;67.67
6218;BME280;3142;48.206;11.550;2022-09-09T01:51:28;95512.13;;;18.77;68.08
6218;BME280;3142;48.206;11.550;2022-09-09T01:53:55;95515.81;;;18.71;68.29
6218;BME280;3142;48.206;11.550;2022-09-09T01:56:31;95524.56;;;18.71;68.54
6218;BME280;3142;48.206;11.550;2022-09-09T01:59:09;95524.03;;;18.69;68.35
6218;BME280;3142;48.206;11.550;2022-09-09T02:01:53;95511.81;;;18.68;67.69
6218;BME280;3142;48.206;11.550;2022-09-09T02:04:32;95517.94;;;18.69;67.26
6218;BME280;3142;48.206;11.550;2022-09-09T02:07:02;95515.97;;;18.59;68.07
6218;BME280;3142;48.206;11.550;2022-09-09T02:09:32;95514.59;;;18.51;68.15
6218;BME280;3142;48.206;11.550;2022-09-09T02:12:03;95517.44;;;18.45;67.48
6218;BME280;3142;48.206;11.550;2022-09-09T02:14:36;95509.94;;;18.31;67.96
6218;BME280;3142;48.206;11.550;2022-09-09T02:17:09;95507.25;;;18.26;67.65
6218;BME280;3142;48.206;11.550;2022-09-09T02:19:38;95500.84;;;18.22;67.77
6218;BME280;3142;48.206;11.550;2022-09-09T02:22:05;95508.03;;;18.27;68.23
6218;BME280;3142;48.206;11.550;2022-09-09T02:24:34;95507.56;;;18.35;67.75
6218;BME280;3142;48.206;11.550;2022-09-09T02:27:04;95504.31;;;18.23;67.90
6218;BME280;3142;48.206;11.550;2022-09-09T02:29:38;95510.31;;;18.13;69.36
6218;BME280;3142;48.206;11.550;2022-09-09T02:32:09;95507.91;;;18.12;69.41
6218;BME280;3142;48.206;11.550;2022-09-09T02:34:40;95503.97;;;18.14;69.10
6218;BME280;3142;48.206;11.550;2022-09-09T02:37:09;95494.94;;;18.10;69.37
6218;BME280;3142;48.206;11.550;2022-09-09T02:39:36;95501.75;;;18.06;69.59
6218;BME280;3142;48.206;11.550;2022-09-09T02:42:04;95500.13;;;18.00;69.10
6218;BME280;3142;48.206;11.550;2022-09-09T02:44:31;95495.03;;;17.93;68.88
6218;BME280;3142;48.206;11.550;2022-09-09T02:47:16;95495.00;;;17.88;68.74
6218;BME280;3142;48.206;11.550;2022-09-09T02:49:55;95491.72;;;17.81;69.48
6218;BME280;3142;48.206;11.550;2022-09-09T02:52:29;95494.16;;;17.83;68.67
6218;BME280;3142;48.206;11.550;2022-09-09T02:55:05;95491.50;;;17.83;68.71
6218;BME280;3142;48.206;11.550;2022-09-09T02:57:34;95503.72;;;17.89;68.57
6218;BME280;3142;48.206;11.550;2022-09-09T03:00:01;95496.19;;;18.02;68.72
6218;BME280;3142;48.206;11.550;2022-09-09T03:02:29;95494.94;;;18.10;68.26
6218;BME280;3142;48.206;11.550;2022-09-09T03:04:56;95498.41;;;18.16;67.86
6218;BME280;3142;48.206;11.550;2022-09-09T03:07:23;95495.41;;;18.07;68.30
6218;BME280;3142;48.206;11.550;2022-09-09T03:09:49;95504.09;;;17.97;68.09
6218;BME280;3142;48.206;11.550;2022-09-09T03:12:16;95493.44;;;17.92;68.86
6218;BME280;3142;48.206;11.550;2022-09-09T03:14:42;95485.50;;;17.92;69.03
6218;BME280;3142;48.206;11.550;2022-09-09T03:17:11;95491.53;;;17.88;69.12
6218;BME280;3142;48.206;11.550;2022-09-09T03:19:38;95489.19;;;17.91;68.58
6218;BME280;3142;48.206;11.550;2022-09-09T03:22:06;95497.41;;;17.95;68.81
6218;BME280;3142;48.206;11.550;2022-09-09T03:24:32;95487.41;;;17.97;68.62
6218;BME280;3142;48.206;11.550;2022-09-09T03:26:59;95487.94;;;17.99;68.39
6218;BME280;3142;48.206;11.550;2022-09-09T03:29:25;95492.34;;;17.88;69.46
6218;BME280;3142;48.206;11.550;2022-09-09T03:31:52;95487.31;;;17.87;69.19
6218;BME280;3142;48.206;11.550;2022-09-09T03:34:18;95483.31;;;17.84;69.61
6218;BME280;3142;48.206;11.550;2022-09-09T03:36:46;95487.84;;;17.89;69.40
6218;BME280;3142;48.206;11.550;2022-09-09T03:39:13;95484.16;;;17.90;69.42
6218;BME280;3142;48.206;11.550;2022-09-09T03:41:40;95481.06;;;17.98;68.83
6218;BME280;3142;48.206;11.550;2022-09-09T03:44:07;95489.72;;;17.93;68.92
6218;BME280;3142;48.206;11.550;2022-09-09T03:46:33;95491.31;;;17.94;69.65
6218;BME280;3142;48.206;11.550;2022-09-09T03:48:59;95486.34;;;17.98;69.42
6218;BME280;3142;48.206;11.550;2022-09-09T03:51:27;95484.25;;;18.00;69.29
6218;BME280;3142;48.206;11.550;2022-09-09T03:53:55;95486.03;;;17.94;69.73
6218;BME280;3142;48.206;11.550;2022-09-09T03:56:22;95483.16;;;17.96;69.18
6218;BME280;3142;48.206;11.550;2022-09-09T03:58:48;95486.53;;;17.91;69.79
6218;BME280;3142;48.206;11.550;2022-09-09T04:01:15;95479.47;;;17.97;69.33
6218;BME280;3142;48.206;11.550;2022-09-09T04:03:43;95472.59;;;18.01;69.27
6218;BME280;3142;48.206;11.550;2022-09-09T04:06:11;95471.03;;;18.05;69.61
6218;BME280;3142;48.206;11.550;2022-09-09T04:08:38;95474.22;;;18.07;69.30
6218;BME280;3142;48.206;11.550;2022-09-09T04:11:06;95472.84;;;17.99;69.05
6218;BME280;3142;48.206;11.550;2022-09-09T04:13:34;95473.59;;;17.95;69.05
6218;BME280;3142;48.206;11.550;2022-09-09T04:16:02;95465.88;;;17.88;69.52
6218;BME280;3142;48.206;11.550;2022-09-09T04:18:30;95480.69;;;17.89;69.49
6218;BME280;3142;48.206;11.550;2022-09-09T04:20:57;95470.38;;;17.88;69.64
6218;BME280;3142;48.206;11.550;2022-09-09T04:23:24;95468.50;;;17.88;69.94
6218;BME280;3142;48.206;11.550;2022-09-09T04:25:52;95473.00;;;17.88;69.69
6218;BME280;3142;48.206;11.550;2022-09-09T04:28:22;95469.84;;;17.91;70.14
6218;BME280;3142;48.206;11.550;2022-09-09T04:30:49;95471.47;;;17.92;69.96
6218;BME280;3142;48.206;11.550;2022-09-09T04:33:16;95469.06;;;17.90;70.06
6218;BME280;3142;48.206;11.550;2022-09-09T04:35:44;95458.50;;;17.95;69.15
6218;BME280;3142;48.206;11.550;2022-09-09T04:38:11;95462.28;;;17.99;69.61
6218;BME280;3142;48.206;11.550;2022-09-09T04:40:37;95447.72;;;18.02;69.09
6218;BME280;3142;48.206;11.550;2022-09-09T04:43:05;95458.28;;;17.97;69.34
6218;BME280;3142;48.206;11.550;2022-09-09T04:45:33;95449.22;;;17.93;69.90
6218;BME280;3142;48.206;11.550;2022-09-09T04:48:00;95452.72;;;17.98;69.52
6218;BME280;3142;48.206;11.550;2022-09-09T04:50:27;95450.28;;;17.92;69.47
6218;BME280;3142;48.206;11.550;2022-09-09T04:52:53;95450.50;;;17.85;69.91
6218;BME280;3142;48.206;11.550;2022-09-09T04:55:20;95458.44;;;17.85;70.08
6218;BME280;3142;48.206;11.550;2022-09-09T04:57:46;95456.59;;;17.86;70.14
6218;BME280;3142;48.206;11.550;2022-09-09T05:00:14;95462.16;;;17.89;69.50
6218;BME280;3142;48.206;11.550;2022-09-09T05:02:43;95452.09;;;17.86;70.21
6218;BME280;3142;48.206;11.550;2022-09-09T05:05:10;95453.19;;;17.90;69.68
6218;BME280;3142;48.206;11.550;2022-09-09T05:07:37;95458.22;;;17.92;69.99
6218;BME280;3142;48.206;11.550;2022-09-09T05:10:04;95457.16;;;17.93;69.71
6218;BME280;3142;48.206;11.550;2022-09-09T05:12:31;95458.81;;;17.99;69.82
6218;BME280;3142;48.206;11.550;2022-09-09T05:14:57;95466.22;;;17.97;69.66
6218;BME280;3142;48.206;11.550;2022-09-09T05:17:24;95464.66;;;18.01;69.21
6218;BME280;3142;48.206;11.550;2022-09-09T05:19:51;95464.41;;;18.02;69.52
6218;BME280;3142;48.206;11.550;2022-09-09T05:22:19;95465.97;;;17.98;69.70
6218;BME280;3142;48.206;11.550;2022-09-09T05:24:46;95463.06;;;18.00;70.30
6218;BME280;3142;48.206;11.550;2022-09-09T05:27:16;95471.56;;;18.02;70.42
6218;BME280;3142;48.206;11.550;2022-09-09T05:29:43;95485.81;;;17.96;70.98
6218;BME280;3142;48.206;11.550;2022-09-09T05:32:09;95485.84;;;18.01;71.01
6218;BME280;3142;48.206;11.550;2022-09-09T05:34:36;95488.22;;;18.02;70.51
6218;BME280;3142;48.206;11.550;2022-09-09T05:37:06;95487.88;;;17.94;70.06
6218;BME280;3142;48.206;11.550;2022-09-09T05:39:33;95485.44;;;17.87;70.54
6218;BME280;3142;48.206;11.550;2022-09-09T05:42:01;95485.75;;;17.91;70.65
6218;BME280;3142;48.206;11.550;2022-09-09T05:44:28;95491.91;;;17.96;70.30
6218;BME280;3142;48.206;11.550;2022-09-09T05:46:54;95487.19;;;18.03;70.07
6218;BME280;3142;48.206;11.550;2022-09-09T05:49:20;95489.56;;;18.05;69.86
6218;BME280;3142;48.206;11.550;2022-09-09T05:51:47;95490.13;;;18.07;70.41
6218;BME280;3142;48.206;11.550;2022-09-09T05:54:17;95488.84;;;18.10;70.06
6218;BME280;3142;48.206;11.550;2022-09-09T05:56:43;95490.19;;;18.12;69.87
6218;BME280;3142;48.206;11.550;2022-09-09T05:59:09;95483.03;;;18.13;69.89
6218;BME280;3142;48.206;11.550;2022-09-09T06:01:37;95469.78;;;18.13;69.18
6218;BME280;3142;48.206;11.550;2022-09-09T06:04:05;95477.09;;;18.00;69.61
6218;BME280;3142;48.206;11.550;2022-09-09T06:06:33;95482.91;;;17.97;69.43
6218;BME280;3142;48.206;11.550;2022-09-09T06:09:03;95486.94;;;18.05;69.34
6218;BME280;3142;48.206;11.550;2022-09-09T06:11:33;95498.06;;;18.07;70.02
6218;BME280;3142;48.206;11.550;2022-09-09T06:14:01;95498.28;;;18.00;69.90
6218;BME280;3142;48.206;11.550;2022-09-09T06:16:29;95496.69;;;17.99;70.32
6218;BME280;3142;48.206;11.550;2022-09-09T06:18:57;95495.81;;;17.94;69.77
6218;BME280;3142;48.206;11.550;2022-09-09T06:21:26;95493.75;;;17.96;69.85
6218;BME280;3142;48.206;11.550;2022-09-09T06:23:53;95486.78;;;17.90;70.07
6218;BME280;3142;48.206;11.550;2022-09-09T06:26:20;95485.16;;;17.84;70.18
6218;BME280;3142;48.206;11.550;2022-09-09T06:28:50;95491.00;;;17.86;70.73
6218;BME280;3142;48.206;11.550;2022-09-09T06:31:18;95481.72;;;17.83;70.46
6218;BME280;3142;48.206;11.550;2022-09-09T06:33:46;95489.16;;;17.86;70.68
6218;BME280;3142;48.206;11.550;2022-09-09T06:36:16;95493.91;;;17.84;70.55
6218;BME280;3142;48.206;11.550;2022-09-09T06:38:43;95491.50;;;17.83;70.83
6218;BME280;3142;48.206;11.550;2022-09-09T06:41:11;95492.34;;;17.88;70.12
6218;BME280;3142;48.206;11.550;2022-09-09T06:43:38;95482.28;;;17.90;70.04
6218;BME280;3142;48.206;11.550;2022-09-09T06:46:08;95486.28;;;17.93;70.63
6218;BME280;3142;48.206;11.550;2022-09-09T06:48:36;95496.97;;;18.03;70.16
6218;BME280;3142;48.206;11.550;2022-09-09T06:51:07;95501.81;;;18.11;69.73
6218;BME280;3142;48.206;11.550;2022-09-09T06:53:35;95500.81;;;18.17;69.29
6218;BME280;3142;48.206;11.550;2022-09-09T06:56:03;95508.47;;;18.14;69.68
6218;BME280;3142;48.206;11.550;2022-09-09T06:58:43;95509.53;;;18.18;69.69
6218;BME280;3142;48.206;11.550;2022-09-09T07:01:12;95499.81;;;18.23;69.02
6218;BME280;3142;48.206;11.550;2022-09-09T07:03:39;95504.53;;;18.21;69.04
6218;BME280;3142;48.206;11.550;2022-09-09T07:06:09;95510.69;;;18.27;68.46
6218;BME280;3142;48.206;11.550;2022-09-09T07:08:40;95525.06;;;18.36;68.78
6218;BME280;3142;48.206;11.550;2022-09-09T07:11:08;95544.47;;;18.42;68.18
6218;BME280;3142;48.206;11.550;2022-09-09T07:13:35;95567.00;;;18.44;69.38
6218;BME280;3142;48.206;11.550;2022-09-09T07:16:04;95580.75;;;18.41;70.60
6218;BME280;3142;48.206;11.550;2022-09-09T07:18:32;95584.44;;;18.40;70.71
6218;BME280;3142;48.206;11.550;2022-09-09T07:20:59;95564.56;;;18.38;71.74
6218;BME280;3142;48.206;11.550;2022-09-09T07:23:27;95571.13;;;18.35;71.68
6218;BME280;3142;48.206;11.550;2022-09-09T07:25:54;95560.50;;;18.30;72.10
6218;BME280;3142;48.206;11.550;2022-09-09T07:28:21;95566.59;;;18.30;72.43
6218;BME280;3142;48.206;11.550;2022-09-09T07:30:53;95575.31;;;18.26;72.96
6218;BME280;3142;48.206;11.550;2022-09-09T07:33:20;95568.50;;;18.35;73.47
6218;BME280;3142;48.206;11.550;2022-09-09T07:35:48;95568.06;;;18.48;72.86
6218;BME280;3142;48.206;11.550;2022-09-09T07:38:15;95573.38;;;18.48;73.80
6218;BME280;3142;48.206;11.550;2022-09-09T07:40:42;95572.50;;;18.38;74.54
6218;BME280;3142;48.206;11.550;2022-09-09T07:43:08;95575.34;;;18.31;75.37
6218;BME280;3142;48.206;11.550;2022-09-09T07:45:35;95575.97;;;18.38;74.44
6218;BME280;3142;48.206;11.550;2022-09-09T07:48:02;95581.38;;;18.53;75.19
6218;BME280;3142;48.206;11.550;2022-09-09T07:50:28;95583.91;;;18.65;74.54
6218;BME280;3142;48.206;11.550;2022-09-09T07:52:56;95580.78;;;18.73;73.82
6218;BME280;3142;48.206;11.550;2022-09-09T07:55:23;95583.47;;;18.78;74.00
6218;BME280;3142;48.206;11.550;2022-09-09T07:57:52;95581.66;;;18.84;73.69
6218;BME280;3142;48.206;11.550;2022-09-09T08:00:18;95583.00;;;18.86;73.31
6218;BME280;3142;48.206;11.550;2022-09-09T08:02:47;95585.09;;;18.84;74.03
6218;BME280;3142;48.206;11.550;2022-09-09T08:05:13;95578.28;;;18.93;73.27
6218;BME280;3142;48.206;11.550;2022-09-09T08:07:40;95584.63;;;18.92;72.90
6218;BME280;3142;48.206;11.550;2022-09-09T08:10:08;95589.63;;;18.89;73.70
6218;BME280;3142;48.206;11.550;2022-09-09T08:12:35;95589.69;;;18.94;73.05
6218;BME280;3142;48.206;11.550;2022-09-09T08:15:01;95594.28;;;19.09;73.26
6218;BME280;3142;48.206;11.550;2022-09-09T08:17:27;95601.75;;;19.17;72.11
6218;BME280;3142;48.206;11.550;2022-09-09T08:19:54;95601.75;;;19.17;72.82
6218;BME280;3142;48.206;11.550;2022-09-09T08:22:20;95606.56;;;19.20;73.26
6218;BME280;3142;48.206;11.550;2022-09-09T08:24:47;95608.16;;;19.21;73.30
6218;BME280;3142;48.206;11.550;2022-09-09T08:27:15;95605.78;;;19.19;72.94
6218;BME280;3142;48.206;11.550;2022-09-09T08:29:41;95621.63;;;19.14;73.06
6218;BME280;3142;48.206;11.550;2022-09-09T08:32:07;95618.97;;;19.14;73.12
6218;BME280;3142;48.206;11.550;2022-09-09T08:34:34;95615.78;;;19.12;73.17
6218;BME280;3142;48.206;11.550;2022-09-09T08:37:00;95610.75;;;19.11;73.40
6218;BME280;3142;48.206;11.550;2022-09-09T08:39:27;95618.66;;;19.06;73.48
6218;BME280;3142;48.206;11.550;2022-09-09T08:42:19;95627.44;;;19.06;73.64
6218;BME280;3142;48.206;11.550;2022-09-09T08:44:57;95617.63;;;19.07;73.42
6218;BME280;3142;48.206;11.550;2022-09-09T08:47:35;95626.94;;;19.14;74.42
6218;BME280;3142;48.206;11.550;2022-09-09T08:50:16;95613.72;;;19.19;74.32
6218;BME280;3142;48.206;11.550;2022-09-09T08:52:52;95611.03;;;19.14;74.49
6218;BME280;3142;48.206;11.550;2022-09-09T08:55:24;95623.75;;;19.12;74.07
6218;BME280;3142;48.206;11.550;2022-09-09T08:57:56;95610.38;;;18.97;74.75
6218;BME280;3142;48.206;11.550;2022-09-09T09:00:28;95604.72;;;18.83;74.43
6218;BME280;3142;48.206;11.550;2022-09-09T09:03:05;95611.50;;;18.69;74.24
6218;BME280;3142;48.206;11.550;2022-09-09T09:05:37;95607.97;;;18.63;75.14
6218;BME280;3142;48.206;11.550;2022-09-09T09:08:13;95610.19;;;18.72;74.96
6218;BME280;3142;48.206;11.550;2022-09-09T09:10:46;95611.31;;;18.81;74.33
6218;BME280;3142;48.206;11.550;2022-09-09T09:13:20;95602.25;;;18.77;75.35
6218;BME280;3142;48.206;11.550;2022-09-09T09:15:52;95618.22;;;18.82;74.95
6218;BME280;3142;48.206;11.550;2022-09-09T09:18:20;95607.28;;;19.05;74.02
6218;BME280;3142;48.206;11.550;2022-09-09T09:20:56;95600.66;;;19.13;73.27
6218;BME280;3142;48.206;11.550;2022-09-09T09:23:26;95602.59;;;19.22;72.28
6218;BME280;3142;48.206;11.550;2022-09-09T09:25:58;95593.34;;;19.30;72.47
6218;BME280;3142;48.206;11.550;2022-09-09T09:28:30;95600.03;;;19.38;72.20
6218;BME280;3142;48.206;11.550;2022-09-09T09:31:01;95603.16;;;19.77;71.44
6218;BME280;3142;48.206;11.550;2022-09-09T09:33:34;95600.28;;;19.89;71.45
6218;BME280;3142;48.206;11.550;2022-09-09T09:36:02;95607.41;;;19.83;70.69
6218;BME280;3142;48.206;11.550;2022-09-09T09:38:34;95614.31;;;19.84;68.73
6218;BME280;3142;48.206;11.550;2022-09-09T09:41:02;95605.28;;;19.80;68.92
6218;BME280;3142;48.206;11.550;2022-09-09T09:43:31;95607.16;;;19.74;69.32
6218;BME280;3142;48.206;11.550;2022-09-09T09:45:58;95608.16;;;19.68;68.81
6218;BME280;3142;48.206;11.550;2022-09-09T09:48:26;95615.84;;;19.65;68.94
6218;BME280;3142;48.206;11.550;2022-09-09T09:50:55;95613.72;;;19.62;69.30
6218;BME280;3142;48.206;11.550;2022-09-09T09:53:25;95612.94;;;19.61;68.88
6218;BME280;3142;48.206;11.550;2022-09-09T09:55:57;95615.00;;;19.59;69.71
6218;BME280;3142;48.206;11.550;2022-09-09T09:58:25;95621.94;;;19.60;70.26
6218;BME280;3142;48.206;11.550;2022-09-09T10:00:54;95615.50;;;19.51;69.57
6218;BME280;3142;48.206;11.550;2022-09-09T10:03:23;95611.47;;;19.43;68.46
6218;BME280;3142;48.206;11.550;2022-09-09T10:05:51;95615.94;;;19.38;68.41
6218;BME280;3142;48.206;11.550;2022-09-09T10:08:18;95613.81;;;19.35;68.12
6218;BME280;3142;48.206;11.550;2022-09-09T10:11:04;95615.38;;;19.31;68.41
6218;BME280;3142;48.206;11.550;2022-09-09T10:13:38;95614.81;;;19.29;69.00
6218;BME280;3142;48.206;11.550;2022-09-09T10:16:23;95613.75;;;19.30;68.51
6218;BME280;3142;48.206;11.550;2022-09-09T10:18:58;95612.72;;;19.31;68.80
6218;BME280;3142;48.206;11.550;2022-09-09T10:21:44;95609.56;;;19.34;68.06
6218;BME280;3142;48.206;11.550;2022-09-09T10:24:39;95616.47;;;19.35;67.13
6218;BME280;3142;48.206;11.550;2022-09-09T10:27:15;95623.31;;;19.31;66.74
6218;BME280;3142;48.206;11.550;2022-09-09T10:29:57;95622.84;;;19.34;66.78
6218;BME280;3142;48.206;11.550;2022-09-09T10:32:35;95627.09;;;19.35;67.02
6218;BME280;3142;48.206;11.550;2022-09-09T10:35:09;95617.81;;;19.37;67.04
6218;BME280;3142;48.206;11.550;2022-09-09T10:37:46;95622.06;;;19.43;66.74
6218;BME280;3142;48.206;11.550;2022-09-09T10:40:28;95610.72;;;19.53;66.57
6218;BME280;3142;48.206;11.550;2022-09-09T10:43:03;95605.78;;;19.67;66.02
6218;BME280;3142;48.206;11.550;2022-09-09T10:45:44;95608.75;;;19.86;65.99
6218;BME280;3142;48.206;11.550;2022-09-09T10:48:26;95609.06;;;19.94;65.78
6218;BME280;3142;48.206;11.550;2022-09-09T10:51:04;95605.88;;;19.97;66.11
6218;BME280;3142;48.206;11.550;2022-09-09T10:53:37;95619.41;;;19.91;66.27
6218;BME280;3142;48.206;11.550;2022-09-09T10:56:10;95606.91;;;19.86;66.16
6218;BME280;3142;48.206;11.550;2022-09-09T10:58:42;95613.56;;;19.89;66.21
6218;BME280;3142;48.206;11.550;2022-09-09T11:01:17;95610.66;;;19.95;66.41
6218;BME280;3142;48.206;11.550;2022-09-09T11:03:50;95612.03;;;20.03;66.47
6218;BME280;3142;48.206;11.550;2022-09-09T11:06:20;95607.28;;;20.20;65.91
6218;BME280;3142;48.206;11.550;2022-09-09T11:08:49;95608.16;;;20.66;64.85
6218;BME280;3142;48.206;11.550;2022-09-09T11:11:21;95607.38;;;20.86;64.03
6218;BME280;3142;48.206;11.550;2022-09-09T11:13:54;95602.59;;;20.88;63.63
6218;BME280;3142;48.206;11.550;2022-09-09T11:16:27;95606.03;;;20.89;63.72
6218;BME280;3142;48.206;11.550;2022-09-09T11:18:59;95600.72;;;20.99;63.31
6218;BME280;3142;48.206;11.550;2022-09-09T11:21:31;95596.94;;;21.20;62.16
6218;BME280;3142;48.206;11.550;2022-09-09T11:24:03;95599.91;;;21.14;60.62
6218;BME280;3142;48.206;11.550;2022-09-09T11:26:35;95607.06;;;21.23;61.04
6218;BME280;3142;48.206;11.550;2022-09-09T11:29:18;95600.44;;;21.31;60.23
6218;BME280;3142;48.206;11.550;2022-09-09T11:32:00;95604.19;;;21.25;60.01
6218;BME280;3142;48.206;11.550;2022-09-09T11:34:44;95601.53;;;21.25;60.75
6218;BME280;3142;48.206;11.550;2022-09-09T11:40:17;95588.97;;;21.10;58.87
6218;BME280;3142;48.206;11.550;2022-09-09T11:42:45;95598.03;;;21.04;59.43
6218;BME280;3142;48.206;11.550;2022-09-09T11:45:23;95596.72;;;21.12;59.29
6218;BME280;3142;48.206;11.550;2022-09-09T11:47:54;95602.03;;;21.17;58.82
6218;BME280;3142;48.206;11.550;2022-09-09T11:50:31;95589.25;;;21.39;57.86
6218;BME280;3142;48.206;11.550;2022-09-09T11:53:20;95593.75;;;21.44;57.51
6218;BME280;3142;48.206;11.550;2022-09-09T11:55:48;95591.66;;;21.31;57.83
6218;BME280;3142;48.206;11.550;2022-09-09T11:58:17;95597.75;;;21.21;58.42
6218;BME280;3142;48.206;11.550;2022-09-09T12:00:46;95598.84;;;21.15;58.96
6218;BME280;3142;48.206;11.550;2022-09-09T12:03:34;95597.25;;;20.98;59.04
6218;BME280;3142;48.206;11.550;2022-09-09T12:06:12;95604.19;;;20.74;59.36
6218;BME280;3142;48.206;11.550;2022-09-09T12:08:44;95599.41;;;20.76;59.95
6218;BME280;3142;48.206;11.550;2022-09-09T12:11:11;95603.91;;;21.26;59.31
6218;BME280;3142;48.206;11.550;2022-09-09T12:13:38;95595.03;;;21.56;58.54
6218;BME280;3142;48.206;11.550;2022-09-09T12:16:28;95603.78;;;21.62;58.44
6218;BME280;3142;48.206;11.550;2022-09-09T12:19:03;95599.09;;;21.39;57.73
6218;BME280;3142;48.206;11.550;2022-09-09T12:21:35;95597.75;;;21.21;57.53
6218;BME280;3142;48.206;11.550;2022-09-09T12:24:07;95598.59;;;21.01;58.00
6218;BME280;3142;48.206;11.550;2022-09-09T12:26:37;95601.25;;;20.81;58.75
6218;BME280;3142;48.206;11.550;2022-09-09T12:29:16;95595.69;;;20.72;59.63
6218;BME280;3142;48.206;11.550;2022-09-09T12:31:53;95590.09;;;20.63;60.35
6218;BME280;3142;48.206;11.550;2022-09-09T12:34:32;95586.91;;;20.72;60.21
6218;BME280;3142;48.206;11.550;2022-09-09T12:37:06;95588.75;;;20.91;60.04
6218;BME280;3142;48.206;11.550;2022-09-09T12:39:41;95578.91;;;20.97;60.20
6218;BME280;3142;48.206;11.550;2022-09-09T12:42:19;95572.78;;;21.02;59.98
6218;BME280;3142;48.206;11.550;2022-09-09T12:44:53;95574.38;;;21.13;59.73
6218;BME280;3142;48.206;11.550;2022-09-09T12:47:21;95579.16;;;21.11;59.49
6218;BME280;3142;48.206;11.550;2022-09-09T12:49:49;95574.88;;;21.10;59.84
6218;BME280;3142;48.206;11.550;2022-09-09T12:52:23;95574.09;;;21.14;59.77
6218;BME280;3142;48.206;11.550;2022-09-09T12:54:52;95565.00;;;21.20;59.39
6218;BME280;3142;48.206;11.550;2022-09-09T12:57:19;95562.91;;;21.17;59.51
6218;BME280;3142;48.206;11.550;2022-09-09T12:59:48;95564.50;;;21.13;59.77
6218;BME280;3142;48.206;11.550;2022-09-09T13:02:19;95559.19;;;21.08;59.80
6218;BME280;3142;48.206;11.550;2022-09-09T13:04:46;95556.53;;;21.03;59.55
6218;BME280;3142;48.206;11.550;2022-09-09T13:07:13;95549.34;;;21.04;59.39
6218;BME280;3142;48.206;11.550;2022-09-09T13:09:43;95550.97;;;20.94;59.47
6218;BME280;3142;48.206;11.550;2022-09-09T13:12:14;95548.31;;;20.94;59.67
6218;BME280;3142;48.206;11.550;2022-09-09T13:14:44;95541.91;;;20.95;59.77
6218;BME280;3142;48.206;11.550;2022-09-09T13:17:18;95542.75;;;20.86;60.04
6218;BME280;3142;48.206;11.550;2022-09-09T13:19:46;95543.28;;;20.78;60.56
6218;BME280;3142;48.206;11.550;2022-09-09T13:22:12;95533.44;;;20.78;60.68
6218;BME280;3142;48.206;11.550;2022-09-09T13:24:40;95543.28;;;20.88;61.01
6218;BME280;3142;48.206;11.550;2022-09-09T13:27:26;95531.59;;;20.84;60.93
6218;BME280;3142;48.206;11.550;2022-09-09T13:29:55;95533.19;;;20.75;61.38
6218;BME280;3142;48.206;11.550;2022-09-09T13:32:22;95528.63;;;20.80;61.49